Rae — WDF3909 — position and weather

sailwx.info

Track history (hours):
 
Tides and Currents Weather Stations Pressure Air Temp Water Temp Dewpoint Dewpoint Depression Visibility Wind Speed Wind Dir Waves Ship Positions

Rae

Owner: Fox Marine Corporation, Easton, PA. More information available from US FCC via Universal Licensing System and Coast Guard Vessel Documentation Center.

Last reported at 2018-Mar-27 10:28 UTC. Time now 2018-Apr-24 18:28 UTC.
Position N 40°40' W 074°01'.
Warning: this ship's position is 28 days out of date.

; draft 2 m.

Type: Fishing. MMSI: 367445510.

Date/timePositionNaut miles runAvg speedWind from/ knotsBaromVisibWave heightAir tempDewpointWater temp
2018-Mar-27 10:28N 40°40' W 074°01'1 3.0
2018-Mar-27 10:00N 40°41' W 073°59'0 0.1
2018-Mar-27 09:31N 40°40' W 073°59'0 0.4
2018-Mar-27 09:00N 40°41' W 073°60'0 0.4
2018-Mar-27 08:30N 40°40' W 073°59'0 0.5
2018-Mar-27 08:00N 40°41' W 073°60'1 1.7
2018-Mar-27 07:31N 40°40' W 074°01'2 4.0
2018-Mar-27 07:00N 40°40' W 074°03'2 3.9
2018-Mar-27 06:30N 40°39' W 074°05'1 3.0
2018-Mar-27 06:01N 40°39' W 074°07'2 3.0
2018-Mar-27 05:29N 40°39' W 074°09'2 3.9
2018-Mar-27 04:59N 40°38' W 074°12'2 3.5
2018-Mar-27 04:27N 40°36' W 074°12'2 3.6
2018-Mar-27 03:57N 40°34' W 074°13'2 3.2
2018-Mar-27 03:28N 40°33' W 074°14'1 0.8
2018-Mar-27 02:28N 40°33' W 074°15'3 6.6
2018-Mar-27 01:59N 40°35' W 074°12'3 6.9
2018-Mar-27 01:30N 40°39' W 074°11'3 5.9
2018-Mar-27 01:00N 40°39' W 074°07'1 2.3
2018-Mar-27 00:30N 40°39' W 074°06'3 6.4
2018-Mar-27 00:01N 40°41' W 074°02'2 3.3
2018-Mar-26 23:31N 40°41' W 074°00'2 3.5
2018-Mar-26 23:00N 40°43' W 073°59'0 0.1
2018-Mar-26 22:31N 40°43' W 073°59'0 0.0
2018-Mar-26 22:01N 40°43' W 073°59'2 3.8
2018-Mar-26 21:31N 40°43' W 074°01'3 5.1
2018-Mar-26 21:00N 40°46' W 074°00'0 0.0
2018-Mar-26 20:30N 40°46' W 074°00'0 0.2
2018-Mar-26 20:00N 40°46' W 074°00'2 4.2
2018-Mar-26 19:31N 40°44' W 074°01'2 3.1
2018-Mar-26 19:00N 40°43' W 074°03'0 0.5
2018-Mar-26 18:31N 40°43' W 074°03'0 0.0
2018-Mar-26 18:01N 40°43' W 074°03'0 0.0
2018-Mar-26 17:31N 40°43' W 074°03'0 0.9
2018-Mar-26 17:01N 40°43' W 074°02'1 2.0
2018-Mar-26 16:30N 40°42' W 074°02'2 3.1
2018-Mar-26 16:01N 40°40' W 074°01'12 0.3
2018-Mar-24 22:28N 40°33' W 074°15'2 4.6
2018-Mar-24 21:58N 40°35' W 074°12'2 4.7
2018-Mar-24 21:29N 40°37' W 074°12'2 4.1
2018-Mar-24 21:00N 40°39' W 074°11'2 3.4
2018-Mar-24 20:30N 40°38' W 074°08'1 2.9
2018-Mar-24 20:00N 40°39' W 074°07'2 3.1
2018-Mar-24 19:30N 40°39' W 074°05'2 3.9
2018-Mar-24 19:00N 40°40' W 074°02'1 2.8
2018-Mar-24 18:30N 40°40' W 074°01'0 0.4
2018-Mar-24 18:00N 40°40' W 074°01'  
Track history (hours):
 
Tides and Currents Weather Stations Pressure Air Temp Water Temp Dewpoint Dewpoint Depression Visibility Wind Speed Wind Dir Waves Ship Positions

Rae

Owner: Fox Marine Corporation, Easton, PA. More information available from US FCC via Universal Licensing System and Coast Guard Vessel Documentation Center.

Last reported at 2018-Mar-27 10:28 UTC. Time now 2018-Apr-24 18:28 UTC.
Position N 40°40' W 074°01'.
Warning: this ship's position is 28 days out of date.

; draft 2 m.

Type: Fishing. MMSI: 367445510.

Date/timePositionNaut miles runAvg speedWind from/ knotsBaromVisibWave heightAir tempDewpointWater temp
2018-Mar-27 10:28N 40°40' W 074°01'1 3.0
2018-Mar-27 10:00N 40°41' W 073°59'0 0.1
2018-Mar-27 09:31N 40°40' W 073°59'0 0.4
2018-Mar-27 09:00N 40°41' W 073°60'0 0.4
2018-Mar-27 08:30N 40°40' W 073°59'0 0.5
2018-Mar-27 08:00N 40°41' W 073°60'1 1.7
2018-Mar-27 07:31N 40°40' W 074°01'2 4.0
2018-Mar-27 07:00N 40°40' W 074°03'2 3.9
2018-Mar-27 06:30N 40°39' W 074°05'1 3.0
2018-Mar-27 06:01N 40°39' W 074°07'2 3.0
2018-Mar-27 05:29N 40°39' W 074°09'2 3.9
2018-Mar-27 04:59N 40°38' W 074°12'2 3.5
2018-Mar-27 04:27N 40°36' W 074°12'2 3.6
2018-Mar-27 03:57N 40°34' W 074°13'2 3.2
2018-Mar-27 03:28N 40°33' W 074°14'1 0.8
2018-Mar-27 02:28N 40°33' W 074°15'3 6.6
2018-Mar-27 01:59N 40°35' W 074°12'3 6.9
2018-Mar-27 01:30N 40°39' W 074°11'3 5.9
2018-Mar-27 01:00N 40°39' W 074°07'1 2.3
2018-Mar-27 00:30N 40°39' W 074°06'3 6.4
2018-Mar-27 00:01N 40°41' W 074°02'2 3.3
2018-Mar-26 23:31N 40°41' W 074°00'2 3.5
2018-Mar-26 23:00N 40°43' W 073°59'0 0.1
2018-Mar-26 22:31N 40°43' W 073°59'0 0.0
2018-Mar-26 22:01N 40°43' W 073°59'2 3.8
2018-Mar-26 21:31N 40°43' W 074°01'3 5.1
2018-Mar-26 21:00N 40°46' W 074°00'0 0.0
2018-Mar-26 20:30N 40°46' W 074°00'0 0.2
2018-Mar-26 20:00N 40°46' W 074°00'2 4.2
2018-Mar-26 19:31N 40°44' W 074°01'2 3.1
2018-Mar-26 19:00N 40°43' W 074°03'0 0.5
2018-Mar-26 18:31N 40°43' W 074°03'0 0.0
2018-Mar-26 18:01N 40°43' W 074°03'0 0.0
2018-Mar-26 17:31N 40°43' W 074°03'0 0.9
2018-Mar-26 17:01N 40°43' W 074°02'1 2.0
2018-Mar-26 16:30N 40°42' W 074°02'2 3.1
2018-Mar-26 16:01N 40°40' W 074°01'12 0.3
2018-Mar-24 22:28N 40°33' W 074°15'2 4.6
2018-Mar-24 21:58N 40°35' W 074°12'2 4.7
2018-Mar-24 21:29N 40°37' W 074°12'2 4.1
2018-Mar-24 21:00N 40°39' W 074°11'2 3.4
2018-Mar-24 20:30N 40°38' W 074°08'1 2.9
2018-Mar-24 20:00N 40°39' W 074°07'2 3.1
2018-Mar-24 19:30N 40°39' W 074°05'2 3.9
2018-Mar-24 19:00N 40°40' W 074°02'1 2.8
2018-Mar-24 18:30N 40°40' W 074°01'0 0.4
2018-Mar-24 18:00N 40°40' W 074°01'  

Dump ship's entire track history